Troy, KS (66087)

8:14 AM CST on February 11, 2016 (GMT -0600)
APRSWXNET | | Change Station
CLOSE
Current Station
Personal Weather Station
Location: Rushville, MO
Elevation: 794 ft
Nearby Weather Stations

Elev 794 ft 39.66 °N, 95.01 °W | Updated 22 minutes ago

Partly Cloudy
Partly Cloudy
21 °F
Feels Like 21 °F
N
0
Wind Variable Wind from NNE
Gusts 0.0 mph

Today
High -- | Low -- °F
--% Chance of Precip.
Yesterday
High -- | Low -- °F
Precip. -- in
Pressure 30.33 in
Visibility 10.0 miles
Clouds Few 3500 ft
Windchill 21 °F
Dew Point 19 °F
Humidity 90%
Rainfall in
Snow Depth Not available.
7:18 AM 5:51 PM
Waxing Crescent, 12% visible
METAR KSTJ 111353Z 03006KT 10SM FEW035 M06/M08 A3030 RMK AO2 SLP271 T10561083
Pressure 30.33 in
Visibility 10.0 miles
Clouds Few 3500 ft
Windchill 21 °F
Dew Point 19 °F
Humidity 90%
Rainfall in
Snow Depth Not available.
7:18 AM 5:51 PM
Waxing Crescent, 12% visible
METAR KSTJ 111353Z 03006KT 10SM FEW035 M06/M08 A3030 RMK AO2 SLP271 T10561083

10-Day Weather Forecast

Almanac

Astronomy

Feb. 11, 2016 Rise Set
Actual Time
Civil Twilight
Nautical Twilight
Astronomical Twilight
Moon
Length of Visible Light
Length of Day
Tomorrow will be .
, % of the Moon is Illuminated

Today's Extremes

State Highs State Lows

Community

WunderPhotos

Upload Photos

1,892,048 photos uploaded!

WunderBlog® & News

Nearby

Air Quality

  Air Quality AQ Index Pollutant
Not available.

Snow Depth

Station Depth Elevation

Earthquake Activity

City Distance Mag. Time & Date
Minimum magnitude displayed is 2.5.

Coastal Water Temperatures

Place Temperature

Stations

Nearby Weather Stations

Station Location Temp. Windchill Dew Point Humidity Wind Precip. Elev Updated Type
                   

Watches & Warnings

There are currently no watches in effect.